createdAt,value
2024-03-09T00:00:34.645Z,68.85
2024-03-09T00:10:56.986Z,67.88
2024-03-09T00:20:59.373Z,68.23
2024-03-09T00:31:01.715Z,67.40
2024-03-09T00:41:06.114Z,68.71
2024-03-09T00:51:08.991Z,68.88
2024-03-09T06:05:12.048Z,68.05
2024-03-09T06:15:20.855Z,65.63
2024-03-09T06:25:27.719Z,64.67
2024-03-09T06:35:30.747Z,62.82
2024-03-09T06:45:33.685Z,62.16
2024-03-09T06:55:36.023Z,60.78
2024-03-09T07:05:39.989Z,59.96
2024-03-09T07:15:43.551Z,60.09
2024-03-09T07:25:45.924Z,60.53
2024-03-09T07:35:48.416Z,60.53
2024-03-09T07:45:50.827Z,60.77
2024-03-09T07:55:56.213Z,60.70
2024-03-09T08:16:01.127Z,60.51
2024-03-09T08:26:07.783Z,61.07
2024-03-09T08:36:14.166Z,61.17
2024-03-09T08:46:16.692Z,62.04
2024-03-09T09:11:22.453Z,59.11
2024-03-09T09:21:25.621Z,59.02
2024-03-09T09:31:28.634Z,59.27
2024-03-09T09:41:31.184Z,60.11
2024-03-09T09:51:37.600Z,62.68
2024-03-09T10:01:40.065Z,63.40
2024-03-09T10:11:42.521Z,64.54
2024-03-09T10:21:44.948Z,64.13
2024-03-09T10:31:51.780Z,64.59
2024-03-09T10:41:56.425Z,65.06
2024-03-09T10:52:00.144Z,66.36
2024-03-09T11:02:03.757Z,66.34
2024-03-09T11:12:07.445Z,66.33
2024-03-09T11:22:09.965Z,67.35
2024-03-09T11:32:13.787Z,67.16
2024-03-09T11:42:19.748Z,66.62
2024-03-09T11:52:25.716Z,65.75
2024-03-09T12:02:28.129Z,65.58
2024-03-09T12:12:30.519Z,63.70
2024-03-09T12:22:34.276Z,62.71
2024-03-09T12:32:37.431Z,62.58
2024-03-09T12:42:43.951Z,61.46
2024-03-09T12:52:50.029Z,59.37
2024-03-09T13:02:52.993Z,58.43
2024-03-09T13:12:55.464Z,58.83
2024-03-09T13:23:02.549Z,57.19
2024-03-09T13:33:05.911Z,58.05
2024-03-09T13:43:08.402Z,57.94
2024-03-09T13:53:10.860Z,58.10
2024-03-09T14:03:13.261Z,58.14
2024-03-09T14:13:15.780Z,59.54
2024-03-09T14:23:21.449Z,59.48
2024-03-09T14:33:23.847Z,60.23
2024-03-09T14:43:27.637Z,59.88
2024-03-09T14:53:30.202Z,61.21
2024-03-09T15:03:34.196Z,61.28
2024-03-09T15:13:40.057Z,61.90
2024-03-09T15:23:42.976Z,61.94
2024-03-09T15:33:45.504Z,61.24
2024-03-09T15:43:50.190Z,62.25
2024-03-09T15:53:53.069Z,62.87
2024-03-09T16:03:57.227Z,63.92
2024-03-09T16:14:01.834Z,64.89
2024-03-09T16:24:08.722Z,64.84
2024-03-09T16:34:12.555Z,65.31
2024-03-09T16:44:16.092Z,65.54
2024-03-09T16:54:19.505Z,66.10
2024-03-09T17:04:21.827Z,66.02
2024-03-09T17:14:25.299Z,67.35
2024-03-09T17:24:27.696Z,67.52
2024-03-09T17:34:30.029Z,68.51
2024-03-09T17:44:32.462Z,68.61
2024-03-09T17:54:35.805Z,68.80
2024-03-09T18:04:38.169Z,68.77
2024-03-09T18:14:41.579Z,70.76
2024-03-09T18:24:43.886Z,69.88
2024-03-09T18:34:46.206Z,71.24
2024-03-09T18:44:48.828Z,71.05
2024-03-09T18:54:51.900Z,70.53
2024-03-09T19:04:54.881Z,72.37
2024-03-09T19:14:58.680Z,72.76
2024-03-09T19:25:02.054Z,71.88
2024-03-09T19:35:05.034Z,72.08
2024-03-09T19:45:07.724Z,70.98
2024-03-09T19:55:13.567Z,72.13
2024-03-09T20:05:17.134Z,75.13
2024-03-09T20:15:19.566Z,73.64
2024-03-09T20:25:24.544Z,76.74
2024-03-09T20:35:27.293Z,78.83
2024-03-09T20:45:29.752Z,78.69
2024-03-09T20:55:32.511Z,78.65
2024-03-09T21:05:35.414Z,80.93
2024-03-09T21:20:18.601Z,80.10
2024-03-09T21:30:22.108Z,80.28
2024-03-09T21:40:26.319Z,81.93
2024-03-09T21:50:30.884Z,83.83
2024-03-09T22:00:35.349Z,80.26
2024-03-09T22:10:38.019Z,81.60
2024-03-09T22:20:40.392Z,81.90
2024-03-09T22:30:42.724Z,85.41
2024-03-09T22:40:45.320Z,83.81
2024-03-09T22:50:48.973Z,82.02
